createdAt,value
2019-04-07T00:01:35.473Z,18.70
2019-04-07T00:04:04.338Z,13.20
2019-04-07T00:06:33.257Z,16.17
2019-04-07T00:09:02.684Z,16.20
2019-04-07T00:11:32.338Z,15.93
2019-04-07T00:14:01.292Z,14.83
2019-04-07T00:16:30.892Z,14.03
2019-04-07T00:19:00.148Z,13.27
2019-04-07T00:21:29.201Z,16.67
2019-04-07T00:23:58.124Z,13.17
2019-04-07T00:26:26.995Z,13.63
2019-04-07T00:28:55.839Z,14.77
2019-04-07T00:31:24.964Z,14.33
2019-04-07T00:33:53.839Z,15.40
2019-04-07T00:36:22.963Z,13.00
2019-04-07T00:38:51.826Z,12.10
2019-04-07T00:41:20.990Z,13.17
2019-04-07T00:43:49.910Z,13.87
2019-04-07T00:46:19.090Z,15.60
2019-04-07T00:48:48.567Z,17.60
2019-04-07T00:51:17.855Z,30.83
2019-04-07T00:53:47.042Z,43.27
2019-04-07T00:56:16.083Z,44.80
2019-04-07T00:58:45.554Z,29.30
2019-04-07T01:01:16.451Z,29.50
2019-04-07T01:03:45.603Z,24.60
2019-04-07T01:06:14.603Z,29.57
2019-04-07T01:08:43.748Z,24.33
2019-04-07T01:11:13.445Z,26.30
2019-04-07T01:13:42.778Z,22.53
2019-04-07T01:16:11.941Z,18.73
2019-04-07T01:18:40.902Z,16.23
2019-04-07T01:21:09.827Z,12.83
2019-04-07T01:23:38.966Z,12.93
2019-04-07T01:26:08.559Z,14.00
2019-04-07T01:28:37.557Z,15.53
2019-04-07T01:31:07.081Z,13.03
2019-04-07T01:33:36.713Z,13.47
2019-04-07T01:36:05.749Z,15.70
2019-04-07T01:38:34.639Z,13.30
2019-04-07T01:41:05.075Z,13.17
2019-04-07T01:43:35.607Z,11.63
2019-04-07T01:46:21.726Z,13.77
2019-04-07T01:48:58.592Z,13.00
2019-04-07T01:51:45.540Z,10.60
2019-04-07T01:54:28.335Z,14.70
2019-04-07T01:56:59.081Z,13.87
2019-04-07T01:59:45.889Z,13.37
2019-04-07T02:02:25.274Z,13.03
2019-04-07T02:05:12.036Z,14.77
2019-04-07T02:07:59.176Z,13.70
2019-04-07T02:10:29.642Z,13.23
2019-04-07T02:13:15.238Z,11.83
2019-04-07T02:16:02.802Z,12.20
2019-04-07T02:18:45.446Z,13.50
2019-04-07T02:21:19.611Z,13.33
2019-04-07T02:24:06.414Z,12.77
2019-04-07T02:26:36.920Z,13.63
2019-04-07T02:29:22.429Z,12.30
2019-04-07T02:31:55.694Z,14.27
2019-04-07T02:34:38.063Z,14.13
2019-04-07T02:37:24.627Z,11.83
2019-04-07T02:40:11.799Z,13.80
2019-04-07T02:42:42.780Z,13.53
2019-04-07T02:45:17.044Z,12.20
2019-04-07T02:47:51.296Z,11.37
2019-04-07T02:50:24.505Z,14.97
2019-04-07T02:52:57.214Z,10.13
2019-04-07T02:55:28.125Z,19.37
2019-04-07T02:58:04.517Z,10.10
2019-04-07T03:00:46.998Z,12.90
2019-04-07T03:03:23.141Z,15.97
2019-04-07T03:05:56.595Z,12.87
2019-04-07T03:08:30.233Z,11.63
2019-04-07T03:11:16.718Z,15.00
2019-04-07T03:13:57.108Z,12.40
2019-04-07T03:16:33.534Z,12.27
2019-04-07T03:19:10.113Z,13.90
2019-04-07T03:21:43.347Z,11.57
2019-04-07T03:24:14.190Z,12.03
2019-04-07T03:27:02.764Z,12.63
2019-04-07T03:29:33.488Z,12.20
2019-04-07T03:32:17.061Z,10.50
2019-04-07T03:34:46.640Z,13.00
2019-04-07T03:37:35.081Z,10.53
2019-04-07T03:39:55.180Z,13.13
2019-04-07T03:42:38.533Z,12.33
2019-04-07T03:45:15.776Z,13.83
2019-04-07T03:47:52.411Z,11.30
2019-04-07T03:50:31.857Z,9.77
2019-04-07T03:53:11.167Z,12.33
2019-04-07T03:55:44.338Z,11.17
2019-04-07T03:58:20.563Z,21.40
2019-04-07T04:01:11.290Z,14.90
2019-04-07T04:03:59.012Z,13.53
2019-04-07T04:06:46.088Z,13.43
2019-04-07T04:09:19.323Z,11.27
2019-04-07T04:12:01.610Z,14.60
2019-04-07T04:14:43.892Z,12.33
2019-04-07T04:17:13.022Z,13.13
2019-04-07T04:19:44.344Z,13.03
2019-04-07T04:22:14.114Z,14.93
2019-04-07T04:24:43.673Z,16.50
2019-04-07T04:27:12.928Z,10.57
2019-04-07T04:29:41.751Z,17.43
2019-04-07T04:32:10.657Z,13.27
2019-04-07T04:34:39.500Z,13.40
2019-04-07T04:37:09.463Z,13.33
2019-04-07T04:39:38.823Z,12.03
2019-04-07T04:42:08.458Z,11.80
2019-04-07T04:44:37.976Z,12.93
2019-04-07T04:47:06.895Z,11.57
2019-04-07T04:49:35.727Z,11.30
2019-04-07T04:52:05.150Z,13.07
2019-04-07T04:54:34.164Z,19.70
2019-04-07T04:57:06.357Z,12.07
2019-04-07T04:59:33.600Z,13.27
2019-04-07T05:02:02.491Z,12.40
2019-04-07T05:04:31.858Z,12.20
2019-04-07T05:07:01.444Z,14.20
2019-04-07T05:09:41.142Z,12.27
2019-04-07T05:12:00.968Z,13.17
2019-04-07T05:14:29.824Z,14.53
2019-04-07T05:16:58.699Z,15.63
2019-04-07T05:19:30.071Z,13.77
2019-04-07T05:25:40.322Z,13.80
2019-04-07T05:28:01.984Z,11.13
2019-04-07T05:30:20.568Z,12.23
2019-04-07T05:32:52.421Z,15.17
2019-04-07T05:35:22.964Z,15.43
2019-04-07T05:38:01.818Z,14.53
2019-04-07T05:40:22.338Z,17.33
2019-04-07T05:42:51.231Z,18.73
2019-04-07T05:45:20.463Z,16.80
2019-04-07T05:50:41.251Z,11.40
2019-04-07T05:53:13.464Z,12.23
2019-04-07T05:55:40.659Z,12.07
2019-04-07T05:58:11.990Z,9.60
2019-04-07T06:00:45.798Z,8.80
2019-04-07T06:03:15.338Z,9.00
2019-04-07T06:05:47.326Z,10.73
2019-04-07T06:08:27.056Z,10.30
2019-04-07T06:10:45.884Z,12.60
2019-04-07T06:13:15.703Z,12.77
2019-04-07T06:15:44.665Z,9.67
2019-04-07T06:18:16.148Z,10.07
2019-04-07T06:20:46.364Z,9.17
2019-04-07T06:23:23.305Z,8.27
2019-04-07T06:25:52.347Z,8.47
2019-04-07T06:28:21.314Z,8.90
2019-04-07T07:16:29.895Z,15.43
2019-04-07T07:19:11.407Z,4.50
2019-04-07T07:24:59.274Z,5.63
2019-04-07T07:27:29.145Z,5.03
2019-04-07T07:29:58.063Z,6.63
2019-04-07T07:32:29.150Z,6.43
2019-04-07T07:34:58.679Z,5.17
2019-04-07T07:37:28.088Z,5.60
2019-04-07T07:39:57.012Z,4.63
2019-04-07T07:42:25.760Z,8.13
2019-04-07T07:44:54.541Z,5.87
2019-04-07T07:47:24.352Z,4.60
2019-04-07T07:49:53.678Z,7.13
2019-04-07T07:52:27.761Z,4.40
2019-04-07T07:54:59.801Z,4.63
2019-04-07T07:57:27.293Z,5.13
2019-04-07T07:59:56.446Z,4.10
2019-04-07T08:02:25.316Z,4.13
2019-04-07T08:04:56.740Z,8.17
2019-04-07T08:07:24.769Z,5.03
2019-04-07T08:09:54.381Z,6.63
2019-04-07T08:12:23.939Z,11.53
2019-04-07T08:14:55.570Z,3.90
2019-04-07T08:17:23.862Z,3.60
2019-04-07T08:19:52.762Z,4.07
2019-04-07T08:22:29.917Z,4.27
2019-04-07T08:24:56.823Z,3.20
2019-04-07T08:27:29.310Z,4.50
2019-04-07T08:29:57.156Z,4.70
2019-04-07T08:32:29.623Z,3.23
2019-04-07T08:34:56.986Z,3.40
2019-04-07T08:37:25.855Z,3.13
2019-04-07T08:39:57.007Z,4.47
2019-04-07T08:42:25.317Z,3.57
2019-04-07T08:44:57.234Z,5.77
2019-04-07T08:47:24.709Z,3.30
2019-04-07T08:49:55.594Z,4.97
2019-04-07T08:52:24.063Z,3.17
2019-04-07T08:54:53.502Z,6.60
2019-04-07T08:57:22.595Z,4.17
2019-04-07T08:59:51.465Z,7.23
2019-04-07T09:02:22.422Z,4.72
2019-04-07T09:04:53.399Z,7.90
2019-04-07T09:07:24.651Z,5.07
2019-04-07T09:09:53.560Z,4.60
2019-04-07T09:12:27.446Z,4.40
2019-04-07T09:14:54.562Z,5.97
2019-04-07T09:17:32.272Z,3.07
2019-04-07T09:20:09.446Z,3.03
2019-04-07T09:22:42.079Z,3.47
2019-04-07T09:25:28.733Z,3.10
2019-04-07T09:27:59.261Z,2.53
2019-04-07T09:30:35.686Z,3.07
2019-04-07T09:33:18.103Z,5.47
2019-04-07T09:35:59.257Z,4.70
2019-04-07T09:38:29.578Z,2.50
2019-04-07T09:41:17.204Z,8.13
2019-04-07T09:43:53.749Z,5.13
2019-04-07T11:49:19.517Z,5.80
2019-04-07T11:51:53.529Z,5.57
2019-04-07T11:54:26.287Z,5.93
2019-04-07T11:56:56.555Z,4.73
2019-04-07T11:59:28.529Z,4.67
2019-04-07T12:02:22.015Z,4.00
2019-04-07T12:04:57.759Z,5.10
2019-04-07T12:07:33.387Z,4.77
2019-04-07T12:10:22.485Z,4.20
2019-04-07T12:13:15.523Z,4.20
2019-04-07T12:16:04.169Z,4.50
2019-04-07T12:18:51.904Z,5.23
2019-04-07T12:21:27.849Z,3.60
2019-04-07T12:24:26.519Z,6.27
2019-04-07T12:26:59.619Z,5.37
2019-04-07T12:29:46.017Z,4.40
2019-04-07T12:32:26.026Z,3.37
2019-04-07T12:34:59.910Z,6.17
2019-04-07T12:37:39.333Z,5.43
2019-04-07T16:21:24.231Z,6.35
2019-04-07T16:23:59.233Z,6.97
2019-04-07T17:17:57.003Z,4.63
2019-04-07T18:24:01.378Z,8.97
2019-04-07T18:25:44.718Z,8.38
2019-04-07T18:32:12.013Z,5.87
2019-04-07T18:33:55.570Z,4.80
2019-04-07T18:36:55.437Z,12.13
2019-04-07T18:41:17.563Z,4.23
2019-04-07T18:42:41.438Z,6.30
2019-04-07T18:45:19.313Z,3.70
2019-04-07T18:47:57.124Z,5.30
2019-04-07T18:50:43.260Z,4.07
2019-04-07T18:53:33.227Z,3.53
2019-04-07T18:55:59.517Z,4.23
2019-04-07T18:58:33.246Z,5.67
2019-04-07T19:01:12.284Z,4.97
2019-04-07T19:03:58.153Z,5.70
2019-04-07T19:06:44.677Z,3.90
2019-04-07T19:09:20.593Z,5.67
2019-04-07T19:12:04.265Z,5.13
2019-04-07T19:14:48.874Z,3.70
2019-04-07T19:17:29.884Z,3.97
2019-04-07T19:20:17.829Z,5.13
2019-04-07T19:22:51.401Z,8.80
2019-04-07T19:28:46.553Z,5.37
2019-04-07T19:31:34.237Z,6.87
2019-04-07T19:34:22.563Z,3.90
2019-04-07T19:37:01.871Z,5.00
2019-04-07T19:39:40.471Z,8.80
2019-04-07T19:45:54.878Z,4.67
2019-04-07T19:48:29.328Z,4.60
2019-04-07T19:51:17.729Z,9.00
2019-04-07T19:54:31.421Z,4.97
2019-04-07T19:57:25.937Z,5.43
2019-04-07T20:00:06.936Z,8.73
2019-04-07T20:02:46.542Z,6.33
2019-04-07T20:21:43.756Z,6.67
2019-04-07T20:24:38.350Z,8.67
2019-04-07T20:37:07.254Z,14.10
2019-04-07T20:44:40.003Z,5.23
2019-04-07T20:45:53.794Z,8.37
2019-04-07T20:49:06.505Z,4.97
